createdAt,value
2018-12-19T00:03:02.838Z,6.37
2018-12-19T00:06:06.470Z,6.20
2018-12-19T00:09:10.011Z,6.37
2018-12-19T00:12:13.709Z,6.03
2018-12-19T00:15:18.353Z,6.10
2018-12-19T00:18:22.018Z,6.03
2018-12-19T00:21:25.674Z,6.67
2018-12-19T00:24:29.648Z,5.92
2018-12-19T00:27:33.313Z,5.72
2018-12-19T00:30:36.772Z,6.00
2018-12-19T00:33:40.367Z,6.30
2018-12-19T00:36:43.925Z,5.90
2018-12-19T00:39:47.438Z,6.10
2018-12-19T00:48:41.058Z,5.93
2018-12-19T00:51:44.614Z,6.03
2018-12-19T00:54:48.144Z,6.40
2018-12-19T00:57:51.930Z,6.53
2018-12-19T01:00:55.425Z,6.30
2018-12-19T01:03:58.945Z,6.37
2018-12-19T01:07:02.436Z,6.90
2018-12-19T01:10:06.454Z,6.43
2018-12-19T01:13:11.640Z,6.90
2018-12-19T01:16:15.164Z,6.13
2018-12-19T01:19:18.725Z,6.83
2018-12-19T01:22:22.359Z,6.90
2018-12-19T01:25:26.201Z,6.50
2018-12-19T01:28:29.760Z,7.47
2018-12-19T01:31:33.335Z,5.67
2018-12-19T01:34:37.286Z,6.83
2018-12-19T01:37:42.118Z,7.17
2018-12-19T01:40:45.739Z,6.33
2018-12-19T01:43:50.167Z,6.97
2018-12-19T01:46:53.834Z,7.43
2018-12-19T01:50:00.685Z,6.80
2018-12-19T01:53:04.223Z,6.90
2018-12-19T01:56:09.394Z,7.40
2018-12-19T01:59:12.903Z,6.72
2018-12-19T02:02:16.713Z,6.47
2018-12-19T02:05:20.290Z,7.80
2018-12-19T02:08:23.860Z,7.03
2018-12-19T02:11:27.504Z,7.13
2018-12-19T02:14:31.308Z,6.83
2018-12-19T02:17:34.943Z,7.90
2018-12-19T02:20:38.498Z,6.45
2018-12-19T02:23:42.893Z,7.40
2018-12-19T02:26:46.510Z,6.27
2018-12-19T02:29:50.814Z,7.73
2018-12-19T02:32:54.417Z,7.53
2018-12-19T02:35:57.984Z,7.13
2018-12-19T02:39:01.482Z,8.10
2018-12-19T02:42:04.975Z,8.33
2018-12-19T02:45:08.682Z,8.05
2018-12-19T02:48:12.358Z,7.70
2018-12-19T02:51:16.954Z,7.50
2018-12-19T02:54:20.472Z,7.77
2018-12-19T02:57:24.021Z,8.37
2018-12-19T03:00:27.572Z,7.77
2018-12-19T03:03:31.046Z,7.57
2018-12-19T03:06:34.532Z,8.38
2018-12-19T03:09:42.864Z,8.80
2018-12-19T03:12:43.668Z,9.13
2018-12-19T03:15:47.224Z,8.47
2018-12-19T03:18:50.818Z,8.30
2018-12-19T03:21:54.355Z,8.20
2018-12-19T03:24:57.898Z,9.30
2018-12-19T03:28:01.556Z,9.07
2018-12-19T03:31:05.098Z,9.00
2018-12-19T03:34:08.765Z,7.87
2018-12-19T03:37:12.172Z,8.75
2018-12-19T03:40:15.706Z,9.08
2018-12-19T03:43:19.239Z,8.73
2018-12-19T03:46:22.797Z,9.20
2018-12-19T03:49:26.620Z,8.50
2018-12-19T03:52:30.276Z,9.13
2018-12-19T03:55:33.799Z,10.10
2018-12-19T03:58:37.315Z,9.20
2018-12-19T04:01:41.033Z,10.03
2018-12-19T04:04:44.590Z,9.03
2018-12-19T04:07:48.459Z,10.20
2018-12-19T04:10:51.993Z,9.33
2018-12-19T04:13:56.246Z,9.00
2018-12-19T04:16:59.824Z,10.28
2018-12-19T04:20:03.689Z,9.18
2018-12-19T04:23:09.224Z,9.77
2018-12-19T04:26:12.647Z,9.40
2018-12-19T04:29:16.193Z,10.33
2018-12-19T04:32:19.831Z,9.77
2018-12-19T04:35:23.423Z,10.73
2018-12-19T04:38:27.242Z,10.23
2018-12-19T04:41:30.741Z,8.83
2018-12-19T04:44:34.290Z,10.10
2018-12-19T04:47:37.917Z,9.80
2018-12-19T04:50:41.474Z,9.50
2018-12-19T04:53:45.014Z,9.20
2018-12-19T04:56:48.540Z,10.13
2018-12-19T04:59:52.018Z,9.90
2018-12-19T05:02:55.925Z,10.15
2018-12-19T05:05:59.404Z,9.83
2018-12-19T05:09:03.643Z,11.50
2018-12-19T05:12:07.209Z,10.67
2018-12-19T05:15:10.729Z,10.20
2018-12-19T05:18:14.339Z,9.90
2018-12-19T05:21:17.798Z,10.23
2018-12-19T05:24:21.290Z,10.77
2018-12-19T05:27:24.844Z,10.00
2018-12-19T05:30:28.425Z,9.53
2018-12-19T05:33:32.037Z,10.60
2018-12-19T05:36:35.559Z,10.80
2018-12-19T05:39:39.083Z,9.97
2018-12-19T05:42:42.778Z,12.00
2018-12-19T05:45:46.409Z,10.60
2018-12-19T05:48:50.019Z,10.83
2018-12-19T05:51:53.734Z,10.97
2018-12-19T05:54:57.320Z,10.38
2018-12-19T05:58:00.982Z,10.17
2018-12-19T06:01:04.685Z,10.53
2018-12-19T06:04:08.288Z,10.38
2018-12-19T06:07:11.807Z,9.27
2018-12-19T06:10:15.434Z,10.53
2018-12-19T06:13:18.862Z,11.17
2018-12-19T06:16:22.482Z,10.70
2018-12-19T06:19:27.397Z,10.30
2018-12-19T06:22:30.952Z,10.83
2018-12-19T06:25:34.538Z,10.80
2018-12-19T06:28:38.097Z,10.98
2018-12-19T06:31:41.759Z,10.50
2018-12-19T06:34:45.434Z,11.30
2018-12-19T06:37:48.921Z,11.17
2018-12-19T06:40:52.487Z,10.70
2018-12-19T06:43:56.247Z,11.20
2018-12-19T06:46:59.774Z,11.53
2018-12-19T06:50:03.488Z,12.10
2018-12-19T06:53:07.111Z,11.37
2018-12-19T06:56:10.651Z,12.47
2018-12-19T06:59:14.328Z,12.63
2018-12-19T07:02:17.834Z,11.67
2018-12-19T07:05:21.383Z,12.27
2018-12-19T07:08:24.937Z,12.40
2018-12-19T07:11:28.697Z,12.87
2018-12-19T07:14:32.333Z,13.57
2018-12-19T07:17:36.782Z,13.40
2018-12-19T07:20:40.308Z,12.73
2018-12-19T07:23:44.041Z,12.80
2018-12-19T07:26:47.614Z,13.10
2018-12-19T07:29:51.107Z,12.50
2018-12-19T07:32:54.878Z,12.90
2018-12-19T07:35:58.363Z,14.10
2018-12-19T07:39:01.941Z,13.40
2018-12-19T07:42:05.622Z,12.88
2018-12-19T07:45:09.252Z,13.50
2018-12-19T07:48:12.989Z,12.87
2018-12-19T07:51:16.566Z,14.03
2018-12-19T07:54:20.077Z,13.93
2018-12-19T07:57:23.703Z,13.70
2018-12-19T08:00:27.625Z,13.33
2018-12-19T08:03:31.421Z,12.50
2018-12-19T08:06:35.122Z,12.13
2018-12-19T08:09:38.750Z,13.30
2018-12-19T08:12:42.407Z,13.43
2018-12-19T08:15:46.023Z,13.90
2018-12-19T08:18:49.477Z,13.40
2018-12-19T08:21:53.062Z,13.00
2018-12-19T08:24:56.594Z,13.65
2018-12-19T08:28:00.152Z,14.30
2018-12-19T08:31:03.723Z,12.80
2018-12-19T08:34:07.552Z,14.13
2018-12-19T08:37:11.113Z,12.60
2018-12-19T08:40:14.635Z,13.10
2018-12-19T08:43:18.206Z,14.30
2018-12-19T08:46:21.723Z,13.53
2018-12-19T08:49:25.443Z,13.68
2018-12-19T08:52:28.977Z,13.77
2018-12-19T08:55:32.486Z,14.03
2018-12-19T08:58:35.958Z,13.80
2018-12-19T09:01:39.665Z,13.25
2018-12-19T09:04:43.357Z,14.37
2018-12-19T09:07:46.992Z,13.10
2018-12-19T09:10:50.632Z,13.30
2018-12-19T09:13:54.158Z,13.00
2018-12-19T09:16:57.700Z,12.45
2018-12-19T09:20:01.702Z,13.85
2018-12-19T09:23:05.362Z,14.03
2018-12-19T09:26:08.991Z,12.70
2018-12-19T09:29:12.598Z,13.40
2018-12-19T09:32:16.955Z,13.77
2018-12-19T09:35:20.621Z,13.27
2018-12-19T09:38:24.193Z,12.63
2018-12-19T09:41:27.905Z,12.80
2018-12-19T09:44:31.496Z,12.60
2018-12-19T09:47:35.291Z,13.33
2018-12-19T09:50:38.789Z,13.57
2018-12-19T09:53:42.662Z,13.13
2018-12-19T09:56:46.387Z,13.63
2018-12-19T09:59:50.035Z,11.47
2018-12-19T10:02:53.712Z,12.30
2018-12-19T10:05:57.350Z,12.80
2018-12-19T10:09:00.857Z,13.00
2018-12-19T10:12:04.486Z,12.87
2018-12-19T10:15:08.335Z,12.10
2018-12-19T10:18:11.841Z,12.20
2018-12-19T10:21:15.416Z,11.55
2018-12-19T10:24:18.922Z,12.30
2018-12-19T10:27:23.927Z,11.73
2018-12-19T10:30:27.615Z,11.30
2018-12-19T10:33:31.185Z,11.57
2018-12-19T10:36:37.970Z,12.37
2018-12-19T10:39:41.565Z,11.22
2018-12-19T10:42:45.126Z,11.47
2018-12-19T10:45:48.745Z,11.57
2018-12-19T10:48:52.290Z,12.00
2018-12-19T10:51:56.876Z,11.35
2018-12-19T10:55:00.520Z,11.47
2018-12-19T10:58:04.165Z,11.53
2018-12-19T11:01:07.696Z,12.98
2018-12-19T11:04:11.326Z,11.95
2018-12-19T11:07:14.871Z,11.07
2018-12-19T11:10:18.555Z,11.03
2018-12-19T11:13:22.127Z,10.60
2018-12-19T11:22:00.415Z,10.33
2018-12-19T11:25:04.266Z,10.37
2018-12-19T11:28:07.760Z,11.03
2018-12-19T11:31:12.328Z,10.68
2018-12-19T11:34:15.800Z,9.83
2018-12-19T11:37:19.511Z,10.23
2018-12-19T11:40:23.160Z,10.57
2018-12-19T11:43:26.966Z,10.45
2018-12-19T11:46:30.558Z,10.77
2018-12-19T11:49:34.156Z,11.20
2018-12-19T11:52:37.736Z,10.18
2018-12-19T11:55:41.230Z,10.32
2018-12-19T11:58:44.940Z,10.63
2018-12-19T12:01:48.413Z,10.57
2018-12-19T12:04:52.441Z,10.30
2018-12-19T12:07:56.936Z,11.00
2018-12-19T12:11:00.733Z,10.53
2018-12-19T12:14:04.399Z,10.93
2018-12-19T12:17:08.824Z,10.82
2018-12-19T12:20:12.505Z,10.72
2018-12-19T12:23:16.136Z,10.57
2018-12-19T12:26:19.631Z,10.10
2018-12-19T12:29:23.140Z,9.50
2018-12-19T12:32:31.111Z,9.84
2018-12-19T12:35:34.695Z,9.83
2018-12-19T12:38:38.366Z,10.20
2018-12-19T12:41:42.067Z,9.73
2018-12-19T12:44:45.807Z,9.17
2018-12-19T12:47:49.330Z,9.47
2018-12-19T12:50:52.801Z,8.60
2018-12-19T12:53:57.038Z,8.85
2018-12-19T12:57:00.590Z,9.43
2018-12-19T13:00:04.430Z,8.73
2018-12-19T13:03:07.910Z,10.73
2018-12-19T13:06:11.550Z,8.95
2018-12-19T13:09:15.090Z,9.53
2018-12-19T13:12:18.629Z,10.00
2018-12-19T13:15:27.576Z,8.93
2018-12-19T13:18:31.076Z,8.73
2018-12-19T13:21:34.595Z,8.50
2018-12-19T13:24:38.146Z,8.87
2018-12-19T13:27:42.921Z,9.45
2018-12-19T13:30:46.602Z,8.40
2018-12-19T13:33:50.108Z,9.30
2018-12-19T13:36:53.611Z,8.77
2018-12-19T13:39:57.255Z,9.05
2018-12-19T13:43:00.853Z,9.10
2018-12-19T13:46:04.512Z,9.40
2018-12-19T13:49:08.044Z,9.37
2018-12-19T13:52:11.602Z,10.08
2018-12-19T13:55:15.209Z,9.30
2018-12-19T13:58:18.785Z,9.80
2018-12-19T14:01:22.285Z,9.87
2018-12-19T14:04:25.986Z,8.43
2018-12-19T14:07:29.607Z,9.40
2018-12-19T14:10:33.120Z,10.40
2018-12-19T14:13:36.613Z,11.20
2018-12-19T14:16:40.098Z,9.67
2018-12-19T14:19:43.717Z,10.30
2018-12-19T14:22:47.477Z,10.13
2018-12-19T14:25:50.985Z,10.63
2018-12-19T14:28:54.512Z,9.30
2018-12-19T14:31:58.132Z,11.40
2018-12-19T14:35:01.813Z,10.95
2018-12-19T14:38:05.352Z,11.70
2018-12-19T14:41:08.866Z,12.10
2018-12-19T14:44:12.312Z,11.83
2018-12-19T14:47:15.917Z,10.50
2018-12-19T14:50:19.392Z,11.30
2018-12-19T14:53:23.068Z,10.73
2018-12-19T14:56:27.041Z,12.05
2018-12-19T14:59:30.556Z,12.70
2018-12-19T15:02:34.056Z,12.20
2018-12-19T15:05:37.669Z,12.07
2018-12-19T15:08:41.290Z,11.53
2018-12-19T15:11:44.841Z,12.50
2018-12-19T15:14:48.346Z,12.00
2018-12-19T15:17:52.481Z,11.70
2018-12-19T15:20:56.430Z,12.63
2018-12-19T15:23:59.899Z,11.80
2018-12-19T15:27:03.510Z,12.10
2018-12-19T15:30:07.413Z,12.57
2018-12-19T15:33:11.169Z,12.10
2018-12-19T15:36:15.139Z,12.00
2018-12-19T15:39:18.720Z,11.97
2018-12-19T15:42:22.274Z,11.60
2018-12-19T15:45:25.802Z,11.07
2018-12-19T15:48:29.283Z,12.10
2018-12-19T15:51:32.867Z,11.73
2018-12-19T15:54:36.410Z,13.10
2018-12-19T15:57:39.941Z,11.90
2018-12-19T16:00:43.409Z,12.90
2018-12-19T16:03:47.009Z,12.30
2018-12-19T16:06:50.734Z,12.33
2018-12-19T16:09:54.320Z,13.40
2018-12-19T16:12:57.922Z,12.00
2018-12-19T16:16:01.580Z,13.85
2018-12-19T16:19:05.287Z,13.70
2018-12-19T16:22:09.003Z,13.50
2018-12-19T16:25:12.550Z,12.77
2018-12-19T16:28:16.550Z,11.97
2018-12-19T16:31:20.074Z,13.50
2018-12-19T16:34:23.884Z,13.67
2018-12-19T16:37:27.485Z,13.25
2018-12-19T16:40:31.121Z,13.97
2018-12-19T16:43:34.629Z,15.07
2018-12-19T16:46:38.206Z,15.33
2018-12-19T16:49:41.685Z,14.30
2018-12-19T16:52:45.246Z,14.60
2018-12-19T16:55:48.753Z,13.93
2018-12-19T16:58:55.615Z,15.13
2018-12-19T17:01:59.244Z,15.70
2018-12-19T17:05:02.864Z,14.50
2018-12-19T17:08:06.430Z,14.20
2018-12-19T17:11:09.991Z,16.00
2018-12-19T17:14:13.696Z,14.97
2018-12-19T17:17:17.215Z,15.50
2018-12-19T17:20:20.635Z,15.60
2018-12-19T17:23:24.087Z,14.97
2018-12-19T17:26:27.573Z,15.30
2018-12-19T17:29:31.070Z,14.57
2018-12-19T17:32:34.904Z,14.30
2018-12-19T17:35:38.443Z,15.03
2018-12-19T17:38:41.909Z,14.27
2018-12-19T17:41:45.345Z,14.40
2018-12-19T17:44:48.765Z,13.90
2018-12-19T17:47:52.740Z,14.18
2018-12-19T17:50:56.185Z,14.67
2018-12-19T17:53:59.680Z,13.58
2018-12-19T17:57:03.054Z,13.40
2018-12-19T18:00:06.861Z,13.93
2018-12-19T18:03:10.399Z,14.20
2018-12-19T18:06:13.869Z,13.98
2018-12-19T18:09:17.449Z,12.80
2018-12-19T18:12:21.032Z,13.80
2018-12-19T18:15:24.547Z,14.33
2018-12-19T18:18:27.996Z,13.80
2018-12-19T18:21:31.500Z,15.58
2018-12-19T18:24:34.950Z,16.17
2018-12-19T18:27:38.407Z,17.50
2018-12-19T18:30:41.891Z,14.80
2018-12-19T18:33:45.336Z,14.10
2018-12-19T18:36:48.829Z,13.30
2018-12-19T18:39:52.775Z,13.05
2018-12-19T18:42:56.314Z,13.67
2018-12-19T18:45:59.829Z,13.20
2018-12-19T18:49:03.951Z,12.87
2018-12-19T18:52:07.440Z,13.13
2018-12-19T18:55:11.041Z,12.23
2018-12-19T18:58:14.587Z,12.53
2018-12-19T19:01:18.136Z,13.10
2018-12-19T19:04:21.762Z,13.95
2018-12-19T19:07:25.470Z,13.73
2018-12-19T19:10:29.225Z,14.27
2018-12-19T19:13:32.859Z,14.60
2018-12-19T19:16:36.411Z,13.40
2018-12-19T19:19:39.882Z,14.07
2018-12-19T19:22:43.518Z,13.77
2018-12-19T19:25:46.973Z,12.83
2018-12-19T19:28:50.422Z,16.20
2018-12-19T19:31:54.203Z,15.70
2018-12-19T19:34:57.795Z,16.37
2018-12-19T19:38:01.387Z,13.97
2018-12-19T19:41:04.876Z,13.68
2018-12-19T19:44:08.315Z,13.32
2018-12-19T19:47:11.821Z,15.83
2018-12-19T19:50:15.252Z,14.18
2018-12-19T19:53:18.776Z,14.38
2018-12-19T19:56:22.307Z,13.10
2018-12-19T19:59:25.763Z,14.20
2018-12-19T20:02:29.427Z,13.93
2018-12-19T20:05:32.955Z,14.38
2018-12-19T20:08:36.477Z,14.73
2018-12-19T20:11:39.995Z,14.53
2018-12-19T20:14:43.498Z,14.80
2018-12-19T20:17:46.946Z,13.23
2018-12-19T20:20:50.605Z,13.63
2018-12-19T20:23:54.188Z,13.03
2018-12-19T20:26:58.027Z,14.50
2018-12-19T20:30:01.522Z,12.93
2018-12-19T20:33:05.015Z,12.73
2018-12-19T20:36:08.484Z,13.93
2018-12-19T20:39:11.962Z,12.60
2018-12-19T20:42:15.428Z,13.20
2018-12-19T20:45:19.053Z,13.47
2018-12-19T20:48:22.527Z,12.73
2018-12-19T20:51:26.107Z,13.33
2018-12-19T20:54:29.667Z,13.20
2018-12-19T20:57:34.341Z,15.13
2018-12-19T21:00:37.899Z,14.60
2018-12-19T21:03:41.555Z,13.67
2018-12-19T21:06:44.987Z,13.73
2018-12-19T21:09:48.391Z,12.67
2018-12-19T21:12:52.922Z,13.15
2018-12-19T21:15:56.372Z,14.67
2018-12-19T21:18:59.856Z,15.20
2018-12-19T21:22:05.296Z,15.77
2018-12-19T21:25:08.883Z,15.40
2018-12-19T21:28:12.291Z,14.40
2018-12-19T21:31:15.727Z,16.00
2018-12-19T21:34:19.349Z,14.30
2018-12-19T21:37:23.106Z,15.53
2018-12-19T21:40:26.645Z,17.10
2018-12-19T21:43:30.081Z,16.00
2018-12-19T21:46:33.753Z,15.37
2018-12-19T21:49:37.384Z,16.07
2018-12-19T21:52:41.167Z,16.43
2018-12-19T21:55:44.751Z,15.70
2018-12-19T21:58:48.474Z,15.60
2018-12-19T22:01:52.927Z,15.60
2018-12-19T22:04:56.395Z,15.90
2018-12-19T22:08:00.009Z,17.17
2018-12-19T22:11:03.719Z,16.50
2018-12-19T22:14:07.251Z,18.20
2018-12-19T22:17:16.166Z,16.87
2018-12-19T22:20:19.776Z,16.43
2018-12-19T22:23:23.256Z,16.43
2018-12-19T22:26:26.849Z,16.67
2018-12-19T22:29:30.345Z,16.83
2018-12-19T22:32:33.963Z,17.07
2018-12-19T22:35:37.855Z,16.73
2018-12-19T22:38:41.477Z,18.20
2018-12-19T22:41:45.023Z,18.50
2018-12-19T22:44:48.743Z,17.10
2018-12-19T22:47:53.155Z,16.43
2018-12-19T22:50:56.781Z,17.17
2018-12-19T22:54:00.269Z,17.52
2018-12-19T22:57:03.959Z,17.80
2018-12-19T23:00:13.487Z,18.53
2018-12-19T23:03:17.013Z,17.20
2018-12-19T23:06:20.554Z,17.70
2018-12-19T23:09:24.266Z,16.90
2018-12-19T23:12:28.180Z,18.57
2018-12-19T23:15:31.749Z,18.20
2018-12-19T23:18:37.790Z,17.13
2018-12-19T23:21:41.543Z,17.10
2018-12-19T23:24:45.115Z,15.77
2018-12-19T23:27:48.588Z,17.00
2018-12-19T23:30:53.186Z,16.15
2018-12-19T23:33:56.841Z,16.80
2018-12-19T23:37:00.274Z,16.85
2018-12-19T23:40:04.311Z,17.60
2018-12-19T23:43:08.004Z,16.42
2018-12-19T23:46:11.651Z,17.77
2018-12-19T23:49:15.252Z,16.97
2018-12-19T23:52:18.821Z,17.67
2018-12-19T23:55:22.375Z,17.27
2018-12-19T23:58:26.089Z,17.40
